Time;durP1;ratioP1;P1;durP2;ratioP2;P2;SDS_P1;SDS_P2;PMS_P1;PMS_P2;Temp;Humidity;BMP_temperature;BMP_pressure;BME280_temperature;BME280_humidity;BME280_pressure;Samples;Min_cycle;Max_cycle;Signal;HPM_P1;HPM_P2
2023/08/30 00:00:09;;;;;;;15.23;8.63;;;;;;;20.87;100.00;94275.22;5045865;28;20260;-77
2023/08/30 00:02:36;;;;;;;14.20;8.85;;;;;;;20.82;100.00;94271.50;5033895;28;20232;-76
2023/08/30 00:05:02;;;;;;;16.30;8.63;;;;;;;21.24;100.00;94278.88;5013428;28;20233;-77
2023/08/30 00:07:28;;;;;;;16.45;8.73;;;;;;;21.48;99.97;94274.38;5048157;28;20229;-76
2023/08/30 00:09:53;;;;;;;10.85;7.38;;;;;;;21.64;92.43;94272.34;5012313;28;20240;-77
2023/08/30 00:12:19;;;;;;;15.52;7.63;;;;;;;21.82;91.61;94268.94;5038609;28;20586;-76
2023/08/30 00:14:45;;;;;;;12.25;7.13;;;;;;;21.71;93.13;94278.09;5024377;28;20224;-77
2023/08/30 00:17:10;;;;;;;12.07;7.20;;;;;;;21.77;89.72;94292.19;5046817;28;20786;-77
2023/08/30 00:19:36;;;;;;;12.57;7.30;;;;;;;21.81;88.84;94285.19;5036165;28;20238;-77
2023/08/30 00:22:01;;;;;;;11.32;7.45;;;;;;;21.53;93.51;94278.84;5034795;28;20228;-76
2023/08/30 00:24:28;;;;;;;10.40;7.03;;;;;;;21.38;95.32;94271.81;5051441;28;21047;-76
2023/08/30 00:26:53;;;;;;;14.05;7.28;;;;;;;21.43;91.72;94271.78;5032493;28;20225;-76
2023/08/30 00:29:19;;;;;;;13.65;7.55;;;;;;;21.65;90.78;94273.13;5033777;28;20222;-75
2023/08/30 00:31:45;;;;;;;9.02;6.70;;;;;;;21.75;90.72;94273.03;5009914;28;20229;-75
2023/08/30 00:34:10;;;;;;;10.55;6.85;;;;;;;21.77;88.35;94271.66;5039769;28;20264;-75
2023/08/30 00:36:36;;;;;;;13.00;6.90;;;;;;;21.71;85.33;94258.69;5051423;28;20749;-75
2023/08/30 00:39:02;;;;;;;11.55;6.30;;;;;;;21.77;85.36;94255.69;5032975;28;20224;-76
2023/08/30 00:41:28;;;;;;;11.65;6.32;;;;;;;21.77;84.64;94254.88;5019739;28;20913;-75
2023/08/30 00:43:53;;;;;;;12.00;6.38;;;;;;;21.77;84.82;94271.66;5030829;28;20241;-76
2023/08/30 00:46:19;;;;;;;12.52;6.20;;;;;;;21.85;85.10;94272.94;5021982;28;20256;-76
2023/08/30 00:48:44;;;;;;;12.85;7.20;;;;;;;21.79;86.08;94274.03;5037804;28;20615;-76
2023/08/30 00:51:10;;;;;;;10.57;6.72;;;;;;;21.59;87.18;94279.59;5050732;28;20228;-76
2023/08/30 00:53:35;;;;;;;10.88;6.55;;;;;;;21.64;86.59;94277.66;5027549;28;20351;-75
2023/08/30 00:56:01;;;;;;;26.10;6.90;;;;;;;21.63;85.93;94283.28;5038204;28;20308;-75
2023/08/30 00:58:26;;;;;;;11.05;6.45;;;;;;;21.62;85.75;94277.16;5032122;28;20229;-74
2023/08/30 01:00:53;;;;;;;9.85;6.85;;;;;;;21.39;88.00;94277.94;5043546;28;20239;-75
2023/08/30 01:03:20;;;;;;;11.90;6.60;;;;;;;21.56;85.99;94277.50;5033918;28;20257;-75
2023/08/30 01:05:45;;;;;;;12.32;6.35;;;;;;;21.59;83.93;94279.59;5037528;28;20229;-76
2023/08/30 01:08:11;;;;;;;11.02;6.07;;;;;;;21.68;82.63;94293.88;5038889;28;20241;-75
2023/08/30 01:11:01;;;;;;;9.50;6.13;;;;;;;21.72;81.66;94302.88;5047645;28;20240;-75
2023/08/30 01:13:27;;;;;;;12.25;5.95;;;;;;;21.50;86.78;94314.03;5049343;28;20234;-77
2023/08/30 01:15:53;;;;;;;10.48;6.28;;;;;;;21.61;85.07;94312.88;5037836;28;20224;-75
2023/08/30 01:18:19;;;;;;;12.45;6.15;;;;;;;21.51;86.53;94312.19;5024654;28;20946;-76
2023/08/30 01:20:44;;;;;;;11.93;6.40;;;;;;;21.61;84.03;94314.75;5025675;28;20747;-75
2023/08/30 01:23:37;;;;;;;10.73;6.00;;;;;;;21.71;81.98;94325.28;5045048;28;20224;-75
2023/08/30 01:26:42;;;;;;;11.05;5.95;;;;;;;21.81;81.26;94325.16;5059763;28;20232;-75
2023/08/30 01:29:08;;;;;;;11.48;6.25;;;;;;;21.42;87.02;94320.75;5041163;28;20235;-74
2023/08/30 01:31:33;;;;;;;12.60;6.45;;;;;;;21.30;88.74;94311.59;5042566;28;21233;-75
2023/08/30 01:33:59;;;;;;;11.10;6.40;;;;;;;21.49;86.56;94313.22;5026389;28;20228;-75
2023/08/30 01:36:25;;;;;;;10.50;6.05;;;;;;;21.73;82.45;94312.47;5020365;28;20232;-75
2023/08/30 01:38:50;;;;;;;13.27;6.50;;;;;;;21.59;85.14;94300.91;5034545;28;21043;-75
2023/08/30 01:41:16;;;;;;;8.50;5.70;;;;;;;21.43;87.54;94293.06;5031436;28;20228;-75
2023/08/30 01:43:41;;;;;;;10.07;5.85;;;;;;;21.51;85.21;94296.19;5036067;28;20247;-75
2023/08/30 01:46:07;;;;;;;8.50;5.97;;;;;;;21.68;83.42;94301.88;5048668;28;20235;-75
2023/08/30 01:48:33;;;;;;;12.50;6.18;;;;;;;21.65;81.18;94307.75;5024217;28;20235;-75
2023/08/30 01:51:00;;;;;;;9.95;6.05;;;;;;;21.75;81.38;94307.66;5034555;28;20274;-74
2023/08/30 01:53:26;;;;;;;12.75;6.18;;;;;;;21.57;83.73;94303.03;5039193;28;20228;-75
2023/08/30 01:55:51;;;;;;;10.20;5.78;;;;;;;21.45;85.75;94298.91;5043429;28;20224;-75
2023/08/30 01:58:18;;;;;;;15.93;6.15;;;;;;;21.30;87.39;94309.69;5038702;28;20232;-74
2023/08/30 02:00:43;;;;;;;12.38;6.57;;;;;;;21.15;88.57;94309.84;5019830;28;20227;-74
2023/08/30 02:03:12;;;;;;;12.40;6.00;;;;;;;21.09;85.94;94310.94;5017520;28;20229;-75
2023/08/30 02:06:04;;;;;;;11.45;6.35;;;;;;;21.28;86.30;94308.41;5040383;28;20217;-74
2023/08/30 02:08:41;;;;;;;12.13;6.03;;;;;;;21.22;86.26;94310.31;5034273;28;20251;-74
2023/08/30 02:11:25;;;;;;;9.90;6.03;;;;;;;21.18;86.33;94297.84;5032090;28;20322;-76
2023/08/30 02:13:50;;;;;;;9.65;5.65;;;;;;;21.18;86.90;94300.50;5025058;28;20303;-74
2023/08/30 02:16:15;;;;;;;9.02;5.80;;;;;;;21.23;86.38;94309.22;5037230;28;20225;-75
2023/08/30 02:18:41;;;;;;;10.38;6.18;;;;;;;21.19;87.21;94300.22;5036992;28;20229;-74
2023/08/30 02:21:06;;;;;;;11.82;6.43;;;;;;;21.27;86.16;94298.81;5023633;28;20241;-74
2023/08/30 02:23:32;;;;;;;9.73;6.40;;;;;;;21.44;85.31;94293.88;5019662;28;20232;-74
2023/08/30 02:25:57;;;;;;;13.32;6.45;;;;;;;21.45;84.55;94293.59;5053463;28;20229;-74
2023/08/30 02:28:23;;;;;;;12.02;6.55;;;;;;;21.54;83.96;94285.78;5038300;28;20231;-74
2023/08/30 02:30:52;;;;;;;12.40;6.38;;;;;;;21.46;84.38;94276.53;5021801;28;20231;-74
2023/08/30 02:33:18;;;;;;;13.73;6.50;;;;;;;21.52;84.02;94284.47;5025125;28;20701;-73
2023/08/30 02:35:43;;;;;;;9.85;6.25;;;;;;;21.57;83.60;94284.41;5017803;28;20248;-74
2023/08/30 02:38:09;;;;;;;13.98;6.72;;;;;;;21.61;82.67;94283.56;5032924;28;20221;-75
2023/08/30 02:40:34;;;;;;;13.10;6.70;;;;;;;21.59;82.46;94287.59;5014882;28;20221;-74
2023/08/30 02:43:00;;;;;;;9.60;6.32;;;;;;;21.59;82.27;94290.25;5038499;28;20252;-74
2023/08/30 02:45:25;;;;;;;13.18;6.70;;;;;;;21.05;86.98;94290.50;5021893;28;20229;-75
2023/08/30 02:47:51;;;;;;;11.48;6.15;;;;;;;20.90;88.58;94286.06;5015798;28;20232;-74
2023/08/30 02:50:17;;;;;;;10.98;6.70;;;;;;;20.81;88.12;94285.09;5039554;28;20259;-75
2023/08/30 02:52:43;;;;;;;10.35;6.57;;;;;;;20.86;88.75;94279.72;5023535;28;20248;-74
2023/08/30 02:55:08;;;;;;;13.02;6.72;;;;;;;20.76;89.25;94271.81;5049756;28;20616;-74
2023/08/30 02:57:34;;;;;;;11.70;6.40;;;;;;;20.79;88.98;94271.28;5053562;28;21007;-74
2023/08/30 03:00:00;;;;;;;14.40;6.53;;;;;;;21.05;87.83;94267.34;5047856;28;20228;-74
2023/08/30 03:02:26;;;;;;;12.73;6.70;;;;;;;21.13;86.74;94266.75;5017095;28;20220;-75
2023/08/30 03:04:56;;;;;;;11.45;6.40;;;;;;;21.00;87.18;94270.03;5039438;28;20224;-77
2023/08/30 03:07:25;;;;;;;11.55;6.97;;;;;;;20.67;88.83;94274.28;5024553;28;20233;-76
2023/08/30 03:10:03;;;;;;;14.13;7.13;;;;;;;20.58;89.90;94280.47;5026348;28;20236;-75
2023/08/30 03:12:34;;;;;;;12.32;6.85;;;;;;;20.64;90.52;94280.16;5040413;28;20328;-75
2023/08/30 03:15:00;;;;;;;11.95;6.65;;;;;;;20.82;89.92;94286.69;5073788;28;20286;-76
2023/08/30 03:17:41;;;;;;;12.82;6.80;;;;;;;20.97;88.98;94278.56;5033535;28;20237;-74
2023/08/30 03:20:07;;;;;;;13.80;7.03;;;;;;;20.96;89.19;94282.31;5010573;28;20642;-76
2023/08/30 03:22:41;;;;;;;12.68;6.78;;;;;;;20.76;89.50;94285.91;5035506;28;20225;-75
2023/08/30 03:25:09;;;;;;;13.90;6.57;;;;;;;20.63;89.21;94289.22;5046920;28;20256;-75
2023/08/30 03:27:44;;;;;;;11.60;6.38;;;;;;;20.35;91.36;94281.94;5047235;28;20229;-75
2023/08/30 03:30:16;;;;;;;13.73;7.13;;;;;;;20.13;92.18;94276.22;5025283;28;20699;-75
2023/08/30 03:32:49;;;;;;;11.68;6.78;;;;;;;20.24;91.74;94275.09;5022746;28;20229;-76
2023/08/30 03:35:26;;;;;;;13.45;6.82;;;;;;;20.20;92.45;94273.25;5029246;28;20620;-76
2023/08/30 03:37:55;;;;;;;12.45;6.88;;;;;;;20.24;91.39;94269.00;5036308;28;20634;-76
2023/08/30 03:40:20;;;;;;;16.40;6.95;;;;;;;20.01;92.14;94265.88;5038659;28;20217;-76
2023/08/30 03:43:04;;;;;;;14.55;6.85;;;;;;;20.20;91.85;94265.28;5055478;28;20236;-76
2023/08/30 03:45:32;;;;;;;13.38;7.43;;;;;;;20.32;90.65;94269.22;5042677;28;20505;-76
2023/08/30 03:48:08;;;;;;;11.68;6.60;;;;;;;20.60;90.14;94255.19;4991112;28;20324;-75
2023/08/30 03:50:41;;;;;;;14.80;7.17;;;;;;;20.41;90.67;94253.47;5013923;28;20297;-75
2023/08/30 03:53:07;;;;;;;15.50;7.40;;;;;;;20.00;93.01;94271.47;5014809;28;20703;-75
2023/08/30 03:55:43;;;;;;;13.15;7.22;;;;;;;19.95;93.60;94274.97;5052918;28;20255;-76
2023/08/30 03:58:15;;;;;;;17.00;7.50;;;;;;;19.87;94.69;94277.41;5031749;28;20324;-75
2023/08/30 04:00:50;;;;;;;16.37;7.20;;;;;;;19.92;94.41;94282.66;5033109;28;20225;-75
2023/08/30 04:03:19;;;;;;;12.40;7.10;;;;;;;20.02;93.71;94294.06;4985673;28;20236;-76
2023/08/30 04:05:44;;;;;;;15.75;8.18;;;;;;;20.07;94.09;94299.34;5054950;28;20261;-75
2023/08/30 04:08:23;;;;;;;15.82;8.00;;;;;;;20.09;93.97;94299.88;5025547;28;20235;-78
2023/08/30 04:11:07;;;;;;;17.83;8.88;;;;;;;20.20;94.41;94297.16;5038860;28;20713;-77
2023/08/30 04:13:52;;;;;;;14.10;8.32;;;;;;;20.31;94.62;94288.09;5020430;28;20312;-77
2023/08/30 04:16:40;;;;;;;15.93;9.67;;;;;;;20.55;94.56;94283.69;5012347;28;20232;-77
2023/08/30 04:19:14;;;;;;;18.98;10.25;;;;;;;20.64;94.36;94295.31;5038215;28;20256;-78
2023/08/30 04:21:51;;;;;;;17.30;9.10;;;;;;;20.61;94.97;94304.63;5028891;28;20223;-78
2023/08/30 04:24:25;;;;;;;17.67;9.47;;;;;;;20.71;94.41;94309.91;5002666;28;20282;-76
2023/08/30 04:27:19;;;;;;;19.00;9.65;;;;;;;20.73;93.98;94317.59;5031424;28;20217;-76
2023/08/30 04:30:19;;;;;;;22.15;10.35;;;;;;;20.85;94.38;94323.34;5015738;28;20233;-78
2023/08/30 04:33:02;;;;;;;17.92;10.10;;;;;;;20.95;93.73;94328.59;5021275;28;20280;-77
2023/08/30 04:35:39;;;;;;;;;;;;;;;;;;;;;
2023/08/30 04:38:10;;;;;;;19.98;10.38;;;;;;;21.10;94.40;94341.03;5007567;28;20710;-76
2023/08/30 04:40:49;;;;;;;19.65;10.25;;;;;;;21.04;93.56;94348.22;5018914;28;20230;-78
2023/08/30 04:43:17;;;;;;;22.90;10.02;;;;;;;21.23;92.56;94359.03;5016332;28;20683;-77
2023/08/30 04:45:42;;;;;;;18.65;9.70;;;;;;;21.16;91.04;94371.88;5039950;28;20320;-77
2023/08/30 04:48:10;;;;;;;20.45;9.68;;;;;;;21.03;90.52;94378.59;5022859;28;21316;-76
2023/08/30 04:50:39;;;;;;;19.05;9.30;;;;;;;21.05;90.44;94365.00;5005452;28;20321;-77
2023/08/30 04:53:05;;;;;;;19.63;9.50;;;;;;;20.98;90.69;94370.63;5025250;28;20281;-76
2023/08/30 04:55:31;;;;;;;17.88;9.23;;;;;;;20.95;90.54;94370.38;5018725;28;20222;-78
2023/08/30 04:57:57;;;;;;;19.88;9.77;;;;;;;20.87;91.29;94357.69;5031885;28;20282;-78
2023/08/30 05:00:25;;;;;;;17.05;9.43;;;;;;;20.88;90.00;94360.06;5057146;28;20235;-78
2023/08/30 05:02:53;;;;;;;19.23;8.40;;;;;;;20.83;89.42;94358.22;5043279;28;20225;-76
2023/08/30 05:05:24;;;;;;;17.85;8.48;;;;;;;20.82;89.15;94359.28;5041564;28;20591;-77
2023/08/30 05:07:50;;;;;;;16.15;8.55;;;;;;;20.74;89.37;94353.75;5051007;28;20233;-76
2023/08/30 05:10:23;;;;;;;17.50;9.07;;;;;;;20.71;89.08;94349.78;5043870;28;20305;-76
2023/08/30 05:12:51;;;;;;;17.88;9.13;;;;;;;20.91;89.49;94359.50;5000122;28;20225;-76
2023/08/30 05:15:29;;;;;;;22.17;9.40;;;;;;;20.91;88.95;94356.84;5048308;28;20232;-77
2023/08/30 05:18:06;;;;;;;16.83;9.35;;;;;;;20.60;89.81;94363.44;5005863;28;20236;-75
2023/08/30 05:20:41;;;;;;;18.13;9.75;;;;;;;20.75;89.53;94358.03;4997461;28;20249;-77
2023/08/30 05:23:09;;;;;;;17.65;9.07;;;;;;;20.70;90.00;94356.19;5027533;28;20234;-77
2023/08/30 05:25:49;;;;;;;19.40;9.77;;;;;;;20.88;89.31;94356.59;5044708;28;20224;-76
2023/08/30 05:28:14;;;;;;;15.17;8.83;;;;;;;20.95;88.30;94362.38;4992453;28;20217;-77
2023/08/30 05:30:41;;;;;;;14.55;7.88;;;;;;;21.08;85.89;94356.47;5010999;28;20244;-77
2023/08/30 05:33:07;;;;;;;12.80;6.32;;;;;;;21.25;82.74;94370.19;5053799;28;20226;-77
2023/08/30 05:35:44;;;;;;;10.13;5.00;;;;;;;21.25;80.07;94375.50;5067041;28;20244;-77
2023/08/30 05:38:09;;;;;;;9.63;4.25;;;;;;;21.27;79.46;94376.03;5027024;28;20231;-76
2023/08/30 05:40:36;;;;;;;9.88;4.35;;;;;;;21.28;77.78;94369.66;5029560;28;20230;-75
2023/08/30 05:43:02;;;;;;;9.15;4.07;;;;;;;21.20;78.20;94368.38;5052259;28;20741;-76
2023/08/30 05:45:33;;;;;;;9.48;4.00;;;;;;;21.23;79.04;94357.16;5035012;28;20237;-77
2023/08/30 05:48:08;;;;;;;11.25;4.00;;;;;;;21.33;78.95;94362.38;5039776;28;20245;-76
2023/08/30 05:51:08;;;;;;;8.80;3.55;;;;;;;21.43;78.25;94364.16;5010002;28;20299;-77
2023/08/30 05:53:41;;;;;;;9.65;4.10;;;;;;;21.51;78.40;94358.25;5053670;28;20245;-77
2023/08/30 05:56:07;;;;;;;12.35;4.30;;;;;;;21.57;77.27;94358.97;5032177;28;20748;-77
2023/08/30 05:58:33;;;;;;;10.20;4.10;;;;;;;21.57;77.24;94361.63;4994745;28;20234;-77
2023/08/30 06:01:17;;;;;;;8.07;4.20;;;;;;;21.61;77.32;94363.47;5005765;28;20242;-76
2023/08/30 06:04:06;;;;;;;9.27;4.28;;;;;;;21.66;77.52;94359.97;5025404;28;20258;-78
2023/08/30 06:06:37;;;;;;;10.55;4.40;;;;;;;21.76;77.05;94357.97;5025524;28;20233;-79
2023/08/30 06:09:03;;;;;;;10.75;4.40;;;;;;;21.72;76.83;94367.63;5001273;28;20239;-76
2023/08/30 06:11:55;;;;;;;10.45;4.55;;;;;;;21.70;76.79;94359.13;5062045;28;20303;-76
2023/08/30 06:14:24;;;;;;;9.10;4.47;;;;;;;21.88;77.54;94358.41;5045402;28;20299;-74
2023/08/30 06:16:58;;;;;;;8.18;4.57;;;;;;;21.98;76.88;94360.19;5050402;28;20309;-74
2023/08/30 06:19:23;;;;;;;10.55;4.40;;;;;;;21.92;77.07;94351.47;5012629;28;20233;-75
2023/08/30 06:21:52;;;;;;;9.02;4.63;;;;;;;22.03;76.40;94355.59;5066047;28;20598;-75
2023/08/30 06:24:37;;;;;;;8.73;4.50;;;;;;;22.11;76.89;94362.19;5051679;28;20225;-75
2023/08/30 06:27:38;;;;;;;13.32;5.28;;;;;;;22.18;76.23;94359.16;5031033;28;20239;-74
2023/08/30 06:30:08;;;;;;;10.05;4.65;;;;;;;22.20;76.04;94360.47;5058469;28;20220;-75
2023/08/30 06:32:39;;;;;;;15.05;4.72;;;;;;;22.16;75.34;94370.13;5043632;28;20231;-76
2023/08/30 06:35:11;;;;;;;11.82;4.60;;;;;;;22.11;75.53;94372.84;5033650;28;20309;-76
2023/08/30 06:37:37;;;;;;;9.63;4.90;;;;;;;22.26;75.16;94374.53;5044992;28;20256;-74
2023/08/30 06:40:14;;;;;;;10.48;4.72;;;;;;;22.22;74.39;94371.63;5014545;28;20336;-75
2023/08/30 06:43:23;;;;;;;9.68;4.43;;;;;;;22.41;75.24;94372.47;5019299;28;20252;-75
2023/08/30 06:45:48;;;;;;;9.73;4.55;;;;;;;22.39;75.33;94363.16;5021039;28;20797;-75
2023/08/30 06:48:16;;;;;;;10.05;5.05;;;;;;;22.51;74.54;94376.88;5039074;28;20226;-75
2023/08/30 06:50:48;;;;;;;8.15;4.68;;;;;;;22.62;72.84;94373.81;5028854;28;20220;-75
2023/08/30 06:53:23;;;;;;;7.55;4.55;;;;;;;22.68;71.27;94375.34;5035456;28;20281;-76
2023/08/30 06:56:01;;;;;;;8.43;4.57;;;;;;;22.74;72.26;94376.06;5010865;28;20251;-75
2023/08/30 06:58:41;;;;;;;;;;;;;;;;;;;;;
2023/08/30 07:01:12;;;;;;;11.57;5.15;;;;;;;22.68;73.29;94364.69;5026399;28;20225;-74
2023/08/30 07:03:44;;;;;;;10.93;5.10;;;;;;;22.70;73.72;94359.84;5037625;28;20245;-74
2023/08/30 07:06:29;;;;;;;12.10;5.03;;;;;;;22.81;72.06;94363.16;5026150;28;20240;-76
2023/08/30 07:09:06;;;;;;;10.23;5.03;;;;;;;22.97;72.74;94369.06;5011309;28;20235;-74
2023/08/30 07:11:31;;;;;;;10.95;5.13;;;;;;;22.97;72.02;94361.06;5048383;28;20265;-74
2023/08/30 07:14:06;;;;;;;11.60;5.30;;;;;;;23.02;72.29;94361.00;5034057;28;20233;-76
2023/08/30 07:16:36;;;;;;;9.88;5.05;;;;;;;23.24;71.41;94369.97;5004246;28;21294;-75
2023/08/30 07:19:02;;;;;;;10.23;4.97;;;;;;;23.22;71.57;94358.00;5020330;28;20239;-73
2023/08/30 07:21:28;;;;;;;12.30;4.93;;;;;;;23.20;70.58;94362.81;5037824;28;20249;-73
2023/08/30 07:23:54;;;;;;;8.07;4.70;;;;;;;23.27;72.22;94363.25;5020863;28;20229;-76
2023/08/30 07:26:45;;;;;;;11.10;5.00;;;;;;;23.09;72.61;94364.88;5031609;28;20309;-77
2023/08/30 07:29:14;;;;;;;14.27;5.95;;;;;;;23.15;72.24;94365.56;4963539;28;20235;-74
2023/08/30 07:31:51;;;;;;;11.93;5.38;;;;;;;23.14;72.19;94374.69;4991198;28;20230;-75
2023/08/30 07:34:22;;;;;;;12.65;5.13;;;;;;;23.37;70.89;94374.59;4980419;28;20279;-75
2023/08/30 07:36:47;;;;;;;10.45;5.47;;;;;;;23.38;71.12;94373.50;5006244;28;20776;-75
2023/08/30 07:39:22;;;;;;;10.82;4.72;;;;;;;23.41;70.20;94366.78;4999303;28;20368;-74
2023/08/30 07:41:58;;;;;;;11.32;5.22;;;;;;;23.41;70.17;94366.78;5018270;28;20762;-74
2023/08/30 07:44:26;;;;;;;12.30;5.30;;;;;;;23.44;69.76;94366.22;4970341;28;20316;-76
2023/08/30 07:47:01;;;;;;;12.85;5.45;;;;;;;23.65;70.09;94370.13;4991958;28;20329;-75
2023/08/30 07:49:30;;;;;;;12.98;5.45;;;;;;;23.68;70.13;94364.19;5004926;28;20234;-74
2023/08/30 07:51:58;;;;;;;12.75;5.25;;;;;;;23.84;70.67;94362.81;4971100;28;20318;-75
2023/08/30 07:54:26;;;;;;;13.02;5.63;;;;;;;23.87;71.11;94367.59;4975436;28;20232;-74
2023/08/30 07:56:52;;;;;;;13.95;5.28;;;;;;;23.69;69.84;94365.00;4950424;28;20832;-75
2023/08/30 07:59:23;;;;;;;14.50;5.53;;;;;;;23.72;70.00;94369.72;4995973;28;20234;-75
2023/08/30 08:01:51;;;;;;;9.90;5.28;;;;;;;23.87;70.53;94372.13;5028725;28;20225;-76
2023/08/30 08:04:34;;;;;;;12.90;5.40;;;;;;;23.89;71.14;94372.63;5042906;28;20233;-75
2023/08/30 08:07:04;;;;;;;13.63;5.50;;;;;;;23.96;70.06;94378.38;5004824;28;20234;-75
2023/08/30 08:09:33;;;;;;;13.50;5.20;;;;;;;23.89;69.79;94370.75;4991018;28;20288;-75
2023/08/30 08:12:11;;;;;;;10.27;5.10;;;;;;;23.98;68.85;94384.22;4955103;28;21300;-75
2023/08/30 08:14:36;;;;;;;11.52;4.80;;;;;;;24.06;68.61;94371.00;4991080;28;20529;-74
2023/08/30 08:17:20;;;;;;;;;;;;;;;;;;;;;
2023/08/30 08:20:22;;;;;;;12.68;5.43;;;;;;;24.43;67.91;94374.56;5003363;28;20241;-75
2023/08/30 08:22:48;;;;;;;13.98;4.40;;;;;;;24.49;64.68;94373.34;4946729;28;20233;-75
2023/08/30 08:25:20;;;;;;;11.98;4.50;;;;;;;24.48;67.16;94369.13;4981494;28;20273;-74
2023/08/30 08:27:46;;;;;;;8.80;4.22;;;;;;;24.45;66.34;94383.09;5009933;28;20321;-75
2023/08/30 08:30:12;;;;;;;7.72;4.00;;;;;;;24.50;63.28;94372.28;4990310;28;20232;-74
2023/08/30 08:32:38;;;;;;;6.97;2.90;;;;;;;24.52;58.51;94388.81;4976502;28;20385;-74
2023/08/30 08:35:04;;;;;;;7.35;3.50;;;;;;;24.59;59.61;94384.66;4993457;28;20768;-74
2023/08/30 08:37:32;;;;;;;10.15;3.83;;;;;;;24.79;60.56;94393.38;5005805;28;20242;-75
2023/08/30 08:39:59;;;;;;;10.40;3.88;;;;;;;24.74;60.50;94384.31;4978811;28;20225;-75
2023/08/30 08:42:35;;;;;;;7.68;3.40;;;;;;;24.92;57.78;94385.31;5024276;28;20232;-74
2023/08/30 08:45:09;;;;;;;8.65;3.72;;;;;;;24.99;57.96;94384.88;5043560;28;20302;-76
2023/08/30 08:47:52;;;;;;;7.97;3.50;;;;;;;25.02;58.09;94393.13;5038795;28;20264;-72
2023/08/30 08:50:18;;;;;;;8.02;3.90;;;;;;;25.10;59.72;94389.72;5037096;28;20264;-75
2023/08/30 08:52:46;;;;;;;9.23;4.00;;;;;;;25.15;59.32;94392.28;5025655;28;20233;-77
2023/08/30 08:55:20;;;;;;;6.95;3.25;;;;;;;25.28;56.72;94382.63;5037031;28;21040;-73
2023/08/30 08:57:49;;;;;;;7.93;3.42;;;;;;;25.32;56.13;94379.00;5044110;28;20327;-77
2023/08/30 09:00:20;;;;;;;7.88;3.38;;;;;;;25.26;56.78;94379.44;5027763;28;20228;-75
2023/08/30 09:02:52;;;;;;;7.10;3.72;;;;;;;25.25;58.49;94381.31;5007073;28;20280;-75
2023/08/30 09:05:18;;;;;;;6.72;3.72;;;;;;;25.35;58.96;94385.66;5039656;28;20342;-73
2023/08/30 09:07:47;;;;;;;11.88;3.70;;;;;;;25.53;59.46;94373.97;5024820;28;20340;-74
2023/08/30 09:10:37;;;;;;;11.13;4.07;;;;;;;25.66;59.07;94375.81;5008108;28;20298;-74
2023/08/30 09:13:05;;;;;;;9.18;3.90;;;;;;;25.73;59.05;94376.16;5049936;28;20247;-75
2023/08/30 09:15:32;;;;;;;10.30;4.07;;;;;;;25.92;59.24;94374.06;5037939;28;20273;-75
2023/08/30 09:18:01;;;;;;;11.30;4.38;;;;;;;25.89;57.59;94371.19;5015861;28;20294;-79
2023/08/30 09:20:27;;;;;;;11.27;4.13;;;;;;;25.75;58.13;94365.91;5023748;28;20265;-74
2023/08/30 09:23:01;;;;;;;9.80;4.03;;;;;;;25.89;58.60;94361.25;5025968;28;20249;-76
2023/08/30 09:25:27;;;;;;;8.68;4.10;;;;;;;25.80;57.17;94354.25;5030278;28;20237;-75
2023/08/30 09:28:21;;;;;;;6.90;3.83;;;;;;;25.84;57.81;94369.44;5025872;28;20715;-75
2023/08/30 09:31:09;;;;;;;10.05;3.92;;;;;;;25.97;57.92;94371.25;5040065;28;20240;-75
2023/08/30 09:34:25;;;;;;;9.23;4.25;;;;;;;26.07;57.39;94375.53;5030240;28;20240;-76
2023/08/30 09:36:53;;;;;;;6.88;4.03;;;;;;;26.21;56.68;94365.53;5034215;28;20730;-76
2023/08/30 09:39:24;;;;;;;8.63;4.10;;;;;;;26.29;56.84;94377.41;5014422;28;20308;-77
2023/08/30 09:41:49;;;;;;;8.38;3.88;;;;;;;26.21;55.47;94362.06;5043173;28;20225;-77
2023/08/30 09:44:50;;;;;;;9.80;4.05;;;;;;;26.08;55.58;94363.69;5021125;28;20223;-76
2023/08/30 09:47:17;;;;;;;9.05;4.18;;;;;;;26.06;57.00;94358.66;5027826;28;20319;-75
2023/08/30 09:50:22;;;;;;;;;;;;;;;;;;;;;
2023/08/30 09:52:49;;;;;;;12.50;5.10;;;;;;;26.37;55.91;94353.25;5026366;28;20759;-74
2023/08/30 09:55:15;;;;;;;11.77;5.00;;;;;;;26.39;55.42;94351.06;5033392;28;20662;-74
2023/08/30 09:57:44;;;;;;;9.20;5.10;;;;;;;26.49;55.35;94339.22;5009776;28;20234;-75
2023/08/30 10:00:26;;;;;;;8.57;4.32;;;;;;;26.52;55.53;94344.78;5009522;28;20240;-76
2023/08/30 10:02:51;;;;;;;8.73;4.60;;;;;;;26.63;55.44;94335.31;5033478;28;20224;-74
2023/08/30 10:05:17;;;;;;;8.93;4.40;;;;;;;26.81;56.38;94340.75;5051010;28;20283;-74
2023/08/30 10:07:48;;;;;;;10.57;4.70;;;;;;;26.62;54.35;94332.94;5024600;28;20244;-75
2023/08/30 10:10:13;;;;;;;7.32;4.40;;;;;;;26.91;54.78;94340.44;5030995;28;20426;-74
2023/08/30 10:12:39;;;;;;;10.02;5.05;;;;;;;26.96;53.64;94351.03;5051630;28;20256;-74
2023/08/30 10:15:21;;;;;;;8.25;4.80;;;;;;;27.08;53.18;94335.06;5035747;28;20241;-74
2023/08/30 10:17:47;;;;;;;9.63;4.88;;;;;;;27.10;53.18;94330.16;5043494;28;20233;-73
2023/08/30 10:20:15;;;;;;;10.43;5.00;;;;;;;26.95;52.92;94330.63;5011179;28;20235;-75
2023/08/30 10:22:43;;;;;;;8.85;5.25;;;;;;;26.98;53.35;94324.63;5030142;28;20222;-74
2023/08/30 10:25:11;;;;;;;7.97;4.95;;;;;;;27.20;52.41;94332.53;5020159;28;20307;-77
2023/08/30 10:27:37;;;;;;;9.02;4.78;;;;;;;27.23;53.48;94331.88;5031507;28;20229;-76
2023/08/30 10:30:04;;;;;;;9.43;5.40;;;;;;;26.89;52.69;94331.91;5000973;28;20234;-77
2023/08/30 10:35:32;;;;;;;8.40;5.32;;;;;;;27.32;52.75;94325.41;5005737;28;20243;-75
2023/08/30 10:38:02;;;;;;;8.45;5.30;;;;;;;27.05;53.21;94325.75;5038752;28;20315;-77
2023/08/30 10:40:51;;;;;;;8.40;5.30;;;;;;;26.77;53.14;94329.84;5011209;28;20324;-77
2023/08/30 10:43:37;;;;;;;11.10;5.10;;;;;;;27.12;52.63;94322.56;5023883;28;20234;-78
2023/08/30 10:46:44;;;;;;;11.88;5.00;;;;;;;27.08;53.63;94321.63;4993418;28;20598;-76
2023/08/30 10:49:16;;;;;;;8.07;5.47;;;;;;;26.76;53.57;94316.72;4981238;28;20254;-75
2023/08/30 10:51:45;;;;;;;11.48;4.90;;;;;;;26.82;53.40;94320.84;4982134;28;20229;-76
2023/08/30 10:57:26;;;;;;;12.98;5.35;;;;;;;26.65;54.87;94311.63;4952982;28;20324;-77
2023/08/30 11:00:11;;;;;;;11.45;5.20;;;;;;;26.60;52.76;94317.16;4994487;28;20321;-75
2023/08/30 11:02:37;;;;;;;9.02;5.30;;;;;;;26.52;54.01;94315.25;5029005;28;20234;-73
2023/08/30 11:05:03;;;;;;;9.40;5.30;;;;;;;26.63;53.66;94304.97;4979577;28;20271;-74
2023/08/30 11:07:29;;;;;;;8.10;5.20;;;;;;;26.63;53.71;94307.66;4979919;28;20238;-73
2023/08/30 11:10:00;;;;;;;10.40;5.25;;;;;;;26.75;52.47;94310.56;4991832;28;20245;-75
2023/08/30 11:12:35;;;;;;;9.85;5.57;;;;;;;26.69;52.76;94304.53;4985279;28;20317;-75
2023/08/30 11:15:02;;;;;;;12.32;6.72;;;;;;;26.77;53.02;94302.19;5023925;28;20762;-74
2023/08/30 11:17:35;;;;;;;13.32;7.18;;;;;;;27.09;52.97;94302.50;5015430;28;20320;-77
2023/08/30 11:20:10;;;;;;;11.63;6.10;;;;;;;27.17;53.20;94300.91;5015950;28;20699;-76
2023/08/30 11:22:53;;;;;;;10.32;5.72;;;;;;;27.45;52.47;94296.78;5034531;28;20229;-74
2023/08/30 11:25:18;;;;;;;11.35;5.47;;;;;;;27.38;50.99;94301.88;4970782;28;20922;-74
2023/08/30 11:27:44;;;;;;;10.13;5.55;;;;;;;27.39;50.77;94290.78;5009525;28;20228;-75
2023/08/30 11:30:15;;;;;;;13.82;6.35;;;;;;;27.73;49.80;94287.22;4982688;28;20222;-74
2023/08/30 11:32:45;;;;;;;22.40;6.10;;;;;;;27.82;50.50;94284.50;5029899;28;20225;-74
2023/08/30 11:35:10;;;;;;;11.38;5.82;;;;;;;28.11;50.24;94275.69;5005266;28;20238;-75
2023/08/30 11:37:39;;;;;;;18.30;6.00;;;;;;;28.22;48.60;94271.50;4986301;28;20233;-75
2023/08/30 11:40:06;;;;;;;16.35;6.13;;;;;;;28.37;47.75;94271.75;4984990;28;20234;-75
2023/08/30 11:42:32;;;;;;;12.48;5.50;;;;;;;28.47;47.13;94271.34;4966356;28;20233;-75
2023/08/30 11:45:01;;;;;;;9.45;5.70;;;;;;;28.64;47.88;94273.97;4979017;28;20242;-75
2023/08/30 11:47:35;;;;;;;11.52;5.78;;;;;;;28.73;48.35;94263.13;4976555;28;20300;-75
2023/08/30 11:50:01;;;;;;;16.10;5.60;;;;;;;28.79;47.46;94274.47;4969685;28;20232;-74
2023/08/30 11:52:29;;;;;;;9.68;5.47;;;;;;;28.80;45.38;94268.78;5016110;28;20315;-75
2023/08/30 11:54:55;;;;;;;9.50;5.30;;;;;;;28.73;45.99;94260.44;5010218;28;20644;-74
2023/08/30 11:57:21;;;;;;;12.02;5.47;;;;;;;28.79;47.33;94263.72;4998089;28;20240;-75